Time;durP1;ratioP1;P1;durP2;ratioP2;P2;SDS_P1;SDS_P2;PMS_P1;PMS_P2;Temp;Humidity;BMP_temperature;BMP_pressure;BME280_temperature;BME280_humidity;BME280_pressure;Samples;Min_cycle;Max_cycle;Signal;HPM_P1;HPM_P2
2021/12/01 00:01:07;;;;;;;2.00;1.80;;;6.50;99.90;;;;;;5055930;28;20368;-69
2021/12/01 00:03:34;;;;;;;1.40;1.30;;;6.60;99.90;;;;;;5056165;28;20257;-68
2021/12/01 00:06:02;;;;;;;1.88;1.77;;;6.60;99.90;;;;;;5056304;28;20294;-69
2021/12/01 00:08:29;;;;;;;1.40;1.30;;;6.60;99.90;;;;;;5055955;28;20249;-68
2021/12/01 00:10:56;;;;;;;1.58;1.48;;;6.50;99.90;;;;;;5055744;28;20310;-68
2021/12/01 00:13:25;;;;;;;1.50;1.40;;;6.60;99.90;;;;;;5055860;28;20231;-68
2021/12/01 00:15:52;;;;;;;1.60;1.50;;;6.60;99.90;;;;;;5055469;28;20224;-68
2021/12/01 00:18:20;;;;;;;1.70;1.60;;;6.60;99.90;;;;;;5055780;28;20210;-68
2021/12/01 00:20:48;;;;;;;1.30;1.30;;;6.60;99.90;;;;;;5055323;28;20318;-69
2021/12/01 00:23:15;;;;;;;1.58;1.48;;;6.60;99.90;;;;;;5055511;28;20276;-68
2021/12/01 00:25:43;;;;;;;1.75;1.65;;;6.50;99.90;;;;;;5055155;28;20203;-68
2021/12/01 00:28:11;;;;;;;1.80;1.60;;;6.50;99.90;;;;;;5055861;28;20257;-69
2021/12/01 00:30:40;;;;;;;2.13;1.80;;;6.40;99.90;;;;;;5055692;28;20276;-69
2021/12/01 00:33:09;;;;;;;2.05;1.95;;;6.50;99.90;;;;;;5055234;28;20211;-69
2021/12/01 00:35:37;;;;;;;1.40;1.30;;;6.40;99.90;;;;;;5055086;28;20298;-68
2021/12/01 00:38:04;;;;;;;1.92;1.75;;;6.40;99.90;;;;;;5055404;28;20708;-68
2021/12/01 00:40:32;;;;;;;2.58;1.55;;;6.40;99.90;;;;;;5055419;28;20227;-68
2021/12/01 00:42:59;;;;;;;2.25;1.50;;;6.40;99.90;;;;;;5055369;28;20310;-68
2021/12/01 00:45:28;;;;;;;1.58;1.48;;;6.30;99.90;;;;;;5054835;28;20210;-68
2021/12/01 00:47:55;;;;;;;1.40;1.30;;;6.30;99.90;;;;;;5054989;28;20288;-69
2021/12/01 00:50:25;;;;;;;3.00;1.77;;;6.20;99.90;;;;;;5054595;28;20630;-69
2021/12/01 00:52:55;;;;;;;1.30;1.20;;;6.20;99.90;;;;;;5054733;28;20616;-69
2021/12/01 00:55:22;;;;;;;1.42;1.13;;;6.20;99.90;;;;;;5054762;28;20245;-68
2021/12/01 00:57:51;;;;;;;1.35;1.25;;;6.20;99.90;;;;;;5054863;28;20606;-68
2021/12/01 01:00:20;;;;;;;1.60;1.30;;;6.10;99.90;;;;;;5054363;28;20273;-68
2021/12/01 01:02:47;;;;;;;1.50;1.40;;;6.10;99.90;;;;;;5054785;28;20310;-67
2021/12/01 01:05:14;;;;;;;1.30;1.20;;;6.10;99.90;;;;;;5054617;28;20637;-67
2021/12/01 01:07:41;;;;;;;2.38;1.45;;;6.20;99.90;;;;;;5054889;28;20306;-68
2021/12/01 01:10:29;;;;;;;1.90;1.80;;;6.20;99.90;;;;;;5054440;28;20220;-68
2021/12/01 01:18:30;;;;;;;1.48;1.38;;;6.10;99.90;;;;;;5054724;28;20199;-67
2021/12/01 01:20:57;;;;;;;1.38;1.10;;;6.10;99.90;;;;;;5054040;28;20223;-67
2021/12/01 01:23:26;;;;;;;1.80;1.70;;;6.10;99.90;;;;;;5054102;28;20259;-68
2021/12/01 01:25:55;;;;;;;1.65;1.55;;;6.00;99.90;;;;;;5054183;28;20565;-68
2021/12/01 01:28:22;;;;;;;1.48;1.30;;;6.00;99.90;;;;;;5054437;28;20653;-68
2021/12/01 01:30:49;;;;;;;1.80;1.40;;;6.10;99.90;;;;;;5054287;28;20314;-68
2021/12/01 01:33:16;;;;;;;1.40;1.30;;;6.10;99.90;;;;;;5054193;28;20286;-68
2021/12/01 01:35:43;;;;;;;1.70;1.50;;;6.10;99.90;;;;;;5053709;28;20294;-68
2021/12/01 01:38:09;;;;;;;1.40;1.40;;;6.10;99.90;;;;;;5054215;28;20254;-67
2021/12/01 01:40:37;;;;;;;1.60;1.50;;;6.10;99.90;;;;;;5053971;28;20262;-67
2021/12/01 01:43:05;;;;;;;1.73;1.63;;;6.20;99.90;;;;;;5053790;28;20712;-67
2021/12/01 01:45:32;;;;;;;1.60;1.50;;;6.20;99.90;;;;;;5053766;28;20238;-67
2021/12/01 01:48:03;;;;;;;2.03;1.88;;;6.20;99.90;;;;;;5053815;28;20295;-67
2021/12/01 01:50:40;;;;;;;2.00;1.80;;;6.20;99.90;;;;;;5053920;28;20227;-67
2021/12/01 01:53:09;;;;;;;2.13;1.92;;;6.20;99.90;;;;;;5054068;28;20199;-66
2021/12/01 01:55:39;;;;;;;2.88;1.80;;;6.20;99.90;;;;;;5053795;28;20565;-67
2021/12/01 01:58:08;;;;;;;2.10;2.00;;;6.30;99.90;;;;;;5053846;28;20199;-68
2021/12/01 02:00:44;;;;;;;2.42;2.22;;;6.30;99.90;;;;;;5061739;28;20229;-67
2021/12/01 02:03:11;;;;;;;2.35;2.15;;;6.30;99.90;;;;;;5093973;28;20226;-68
2021/12/01 02:05:38;;;;;;;1.90;1.80;;;6.30;99.90;;;;;;5094701;28;20289;-68
2021/12/01 02:08:14;;;;;;;2.17;2.03;;;6.40;99.90;;;;;;5094814;28;20236;-67
2021/12/01 02:10:41;;;;;;;2.10;1.98;;;6.40;99.90;;;;;;5094728;28;20247;-67
2021/12/01 02:13:09;;;;;;;1.90;1.80;;;6.40;99.90;;;;;;5094754;28;20236;-67
2021/12/01 02:15:36;;;;;;;1.88;1.77;;;6.40;99.90;;;;;;5094393;28;20241;-68
2021/12/01 02:18:04;;;;;;;2.05;1.85;;;6.50;99.90;;;;;;5094630;28;20283;-68
2021/12/01 02:20:32;;;;;;;2.45;2.25;;;6.50;99.90;;;;;;5094574;28;20652;-67
2021/12/01 02:23:01;;;;;;;1.75;1.65;;;6.50;99.90;;;;;;5094283;28;20289;-67
2021/12/01 02:25:28;;;;;;;2.25;2.15;;;6.50;99.90;;;;;;5094115;28;20233;-67
2021/12/01 02:27:55;;;;;;;2.08;1.88;;;6.50;99.90;;;;;;5094333;28;20288;-68
2021/12/01 02:30:23;;;;;;;2.10;1.90;;;6.60;99.90;;;;;;5094041;28;20313;-68
2021/12/01 02:32:50;;;;;;;2.70;2.15;;;6.60;99.90;;;;;;5094378;28;20267;-67
2021/12/01 02:35:17;;;;;;;1.92;1.80;;;6.60;99.90;;;;;;5093983;28;20210;-67
2021/12/01 02:37:46;;;;;;;2.25;2.00;;;6.60;99.90;;;;;;5094257;28;20289;-68
2021/12/01 02:40:13;;;;;;;2.58;1.80;;;6.60;99.90;;;;;;5094158;28;20265;-68
2021/12/01 02:42:40;;;;;;;1.88;1.75;;;6.60;99.90;;;;;;5094173;28;20241;-68
2021/12/01 02:45:08;;;;;;;1.77;1.67;;;6.70;99.90;;;;;;5093945;28;20656;-68
2021/12/01 02:47:35;;;;;;;2.20;2.00;;;6.70;99.90;;;;;;5093982;28;20683;-67
2021/12/01 02:50:02;;;;;;;1.80;1.70;;;6.70;99.90;;;;;;5094353;28;20304;-68
2021/12/01 02:52:34;;;;;;;1.98;1.60;;;6.70;99.90;;;;;;5094102;28;20213;-68
2021/12/01 02:55:05;;;;;;;2.00;1.80;;;6.60;99.90;;;;;;5093714;28;20213;-68
2021/12/01 02:57:43;;;;;;;2.10;1.80;;;6.60;99.90;;;;;;5093749;28;20255;-67
2021/12/01 03:00:11;;;;;;;1.60;1.50;;;6.60;99.90;;;;;;5093864;28;20257;-67
2021/12/01 03:02:39;;;;;;;1.70;1.60;;;6.60;99.90;;;;;;5093677;28;20293;-67
2021/12/01 03:05:07;;;;;;;1.80;1.70;;;6.50;99.90;;;;;;5093540;28;20312;-67
2021/12/01 03:07:34;;;;;;;1.75;1.65;;;6.60;99.90;;;;;;5093739;28;20237;-67
2021/12/01 03:10:03;;;;;;;1.30;1.30;;;6.60;99.90;;;;;;5093489;28;20720;-67
2021/12/01 03:12:31;;;;;;;1.88;1.77;;;6.60;99.90;;;;;;5093794;28;20288;-68
2021/12/01 03:14:58;;;;;;;1.70;1.60;;;6.60;99.90;;;;;;5093060;28;20289;-68
2021/12/01 03:17:28;;;;;;;1.42;1.33;;;6.60;99.90;;;;;;5093507;28;20293;-68
2021/12/01 03:19:55;;;;;;;1.88;1.77;;;6.70;99.90;;;;;;5093581;28;20226;-67
2021/12/01 03:22:22;;;;;;;1.60;1.50;;;6.60;99.90;;;;;;5093719;28;20297;-68
2021/12/01 03:24:50;;;;;;;1.75;1.65;;;6.60;99.90;;;;;;5093417;28;20257;-68
2021/12/01 03:27:18;;;;;;;2.03;1.60;;;6.60;99.90;;;;;;5093522;28;20233;-68
2021/12/01 03:29:46;;;;;;;1.92;1.73;;;6.70;99.90;;;;;;5093489;28;20284;-67
2021/12/01 03:32:13;;;;;;;1.65;1.55;;;6.70;99.90;;;;;;5093341;28;20731;-67
2021/12/01 03:34:41;;;;;;;1.60;1.50;;;6.80;99.90;;;;;;5093399;28;20194;-68
2021/12/01 03:37:08;;;;;;;1.80;1.70;;;6.70;99.90;;;;;;5093325;28;20206;-67
2021/12/01 03:39:35;;;;;;;1.98;1.88;;;6.70;99.90;;;;;;5093223;28;20293;-67
2021/12/01 03:42:03;;;;;;;3.10;1.45;;;6.70;99.90;;;;;;5093305;28;20240;-67
2021/12/01 03:44:32;;;;;;;1.73;1.63;;;6.70;99.90;;;;;;5093207;28;20222;-67
2021/12/01 03:46:59;;;;;;;1.40;1.30;;;6.70;99.90;;;;;;5093476;28;20571;-68
2021/12/01 03:49:26;;;;;;;1.70;1.60;;;6.70;99.90;;;;;;5093205;28;20734;-68
2021/12/01 03:51:54;;;;;;;1.80;1.70;;;6.70;99.90;;;;;;5093144;28;20301;-67
2021/12/01 03:54:21;;;;;;;1.92;1.70;;;6.70;99.90;;;;;;5093224;28;20241;-67
2021/12/01 03:56:48;;;;;;;1.65;1.55;;;6.70;99.90;;;;;;5093369;28;20234;-67
2021/12/01 03:59:15;;;;;;;1.60;1.50;;;6.80;99.90;;;;;;5093333;28;20206;-68
2021/12/01 04:01:43;;;;;;;1.60;1.50;;;6.80;99.90;;;;;;5093166;28;20230;-67
2021/12/01 04:04:10;;;;;;;6.45;4.65;;;6.80;99.90;;;;;;5093204;28;20265;-68
2021/12/01 04:06:37;;;;;;;1.95;1.75;;;6.80;99.90;;;;;;5092968;28;20660;-67
2021/12/01 04:09:06;;;;;;;1.90;1.80;;;6.80;99.90;;;;;;5093096;28;20687;-67
2021/12/01 04:11:32;;;;;;;2.95;2.47;;;6.80;99.90;;;;;;5093228;28;20272;-68
2021/12/01 04:13:59;;;;;;;2.25;1.98;;;6.80;99.90;;;;;;5093159;28;20230;-67
2021/12/01 04:16:26;;;;;;;1.60;1.50;;;6.70;99.90;;;;;;5092876;28;20702;-67
2021/12/01 04:18:55;;;;;;;1.83;1.65;;;6.80;99.90;;;;;;5092912;28;20202;-67
2021/12/01 04:21:24;;;;;;;1.50;1.35;;;6.80;99.90;;;;;;5093138;28;20257;-67
2021/12/01 04:23:51;;;;;;;1.70;1.60;;;6.80;99.90;;;;;;5092909;28;20228;-67
2021/12/01 04:26:21;;;;;;;1.52;1.42;;;6.80;99.90;;;;;;5093901;28;20251;-68
2021/12/01 04:28:48;;;;;;;3.15;1.40;;;6.90;99.90;;;;;;5096730;28;20202;-67
2021/12/01 04:31:15;;;;;;;1.88;1.67;;;6.80;99.90;;;;;;5096729;28;20628;-67
2021/12/01 04:33:42;;;;;;;2.67;2.47;;;6.80;99.90;;;;;;5096660;28;20301;-67
2021/12/01 04:36:10;;;;;;;1.80;1.70;;;6.80;99.90;;;;;;5096319;28;20300;-67
2021/12/01 04:38:37;;;;;;;1.80;1.70;;;6.70;99.90;;;;;;5096438;28;20251;-67
2021/12/01 04:41:05;;;;;;;2.10;2.00;;;6.60;99.90;;;;;;5096454;28;20312;-67
2021/12/01 04:43:33;;;;;;;1.70;1.60;;;6.60;99.90;;;;;;5096448;28;20197;-67
2021/12/01 04:46:00;;;;;;;2.03;1.45;;;6.50;99.90;;;;;;5096256;28;20316;-67
2021/12/01 04:48:27;;;;;;;1.90;1.80;;;6.60;99.90;;;;;;5096351;28;20202;-67
2021/12/01 04:50:55;;;;;;;2.20;1.80;;;6.60;99.90;;;;;;5096262;28;20255;-67
2021/12/01 04:53:25;;;;;;;1.70;1.60;;;6.60;99.90;;;;;;5096315;28;20285;-67
2021/12/01 04:55:52;;;;;;;1.90;1.80;;;6.60;99.90;;;;;;5095854;28;20652;-68
2021/12/01 04:58:19;;;;;;;1.55;1.45;;;6.80;99.90;;;;;;5096245;28;20642;-67
2021/12/01 05:00:46;;;;;;;1.50;1.40;;;6.80;99.90;;;;;;5096120;28;20261;-67
2021/12/01 05:03:13;;;;;;;1.30;1.30;;;6.80;99.90;;;;;;5096129;28;20618;-67
2021/12/01 05:05:40;;;;;;;1.52;1.42;;;6.90;99.90;;;;;;5095538;28;20759;-67
2021/12/01 05:08:07;;;;;;;1.45;1.35;;;7.00;99.90;;;;;;5095943;28;20238;-67
2021/12/01 05:10:35;;;;;;;1.65;1.40;;;7.00;99.90;;;;;;5095800;28;20761;-68
2021/12/01 05:13:02;;;;;;;1.23;1.20;;;7.00;99.90;;;;;;5095931;28;20234;-67
2021/12/01 05:15:29;;;;;;;1.27;1.10;;;7.00;99.90;;;;;;5095553;28;20294;-67
2021/12/01 05:17:57;;;;;;;1.70;1.60;;;7.00;99.90;;;;;;5095885;28;20209;-67
2021/12/01 05:20:24;;;;;;;0.90;0.90;;;7.00;99.90;;;;;;5095682;28;20694;-67
2021/12/01 05:22:51;;;;;;;1.30;1.20;;;7.00;99.90;;;;;;5095724;28;20230;-67
2021/12/01 05:25:17;;;;;;;1.25;1.15;;;6.90;99.90;;;;;;5095415;28;20313;-67
2021/12/01 05:27:46;;;;;;;1.00;1.00;;;6.90;99.90;;;;;;5095676;28;20299;-67
2021/12/01 05:30:13;;;;;;;1.38;1.27;;;6.90;99.90;;;;;;5095318;28;20770;-67
2021/12/01 05:32:40;;;;;;;2.10;1.23;;;6.90;99.90;;;;;;5095292;28;20293;-67
2021/12/01 05:35:08;;;;;;;1.23;1.13;;;6.90;99.90;;;;;;5095133;28;20754;-67
2021/12/01 05:37:34;;;;;;;1.83;1.10;;;6.90;99.90;;;;;;5095329;28;20293;-67
2021/12/01 05:40:02;;;;;;;1.08;0.98;;;7.00;99.90;;;;;;5095073;28;20313;-67
2021/12/01 05:42:28;;;;;;;1.10;0.98;;;7.10;99.90;;;;;;5095174;28;20723;-67
2021/12/01 05:44:57;;;;;;;1.35;1.10;;;7.20;99.90;;;;;;5094985;28;20313;-67
2021/12/01 05:47:24;;;;;;;1.33;0.93;;;7.30;99.90;;;;;;5095242;28;20242;-67
2021/12/01 05:49:51;;;;;;;1.38;1.10;;;7.30;99.90;;;;;;5095190;28;20309;-67
2021/12/01 05:52:18;;;;;;;0.80;0.80;;;7.40;99.90;;;;;;5095179;28;20240;-67
2021/12/01 05:54:50;;;;;;;1.10;1.10;;;7.50;99.90;;;;;;5094901;28;20289;-67
2021/12/01 05:57:17;;;;;;;0.98;0.88;;;7.50;99.90;;;;;;5094921;28;20209;-67
2021/12/01 05:59:44;;;;;;;1.35;1.17;;;7.60;99.90;;;;;;5094772;28;20357;-67
2021/12/01 06:02:12;;;;;;;1.13;0.68;;;7.60;99.90;;;;;;5095048;28;20620;-67
2021/12/01 06:04:39;;;;;;;2.35;2.13;;;7.60;99.90;;;;;;5094605;28;20305;-67
2021/12/01 06:07:06;;;;;;;1.00;1.00;;;7.60;99.90;;;;;;5094928;28;20728;-67
2021/12/01 06:09:32;;;;;;;0.93;0.90;;;7.60;99.90;;;;;;5094506;28;20245;-67
2021/12/01 06:12:00;;;;;;;1.85;0.80;;;7.60;99.90;;;;;;5094510;28;20245;-68
2021/12/01 06:14:27;;;;;;;1.48;0.80;;;7.70;99.90;;;;;;5094500;28;20209;-67
2021/12/01 06:16:54;;;;;;;0.85;0.85;;;7.70;99.90;;;;;;5094637;28;20312;-67
2021/12/01 06:19:23;;;;;;;1.17;1.08;;;7.70;99.90;;;;;;5094607;28;20300;-67
2021/12/01 06:21:50;;;;;;;0.70;0.70;;;7.70;99.90;;;;;;5094263;28;20253;-67
2021/12/01 06:24:16;;;;;;;1.27;1.17;;;7.70;99.90;;;;;;5094451;28;20293;-67
2021/12/01 06:26:43;;;;;;;1.33;1.00;;;7.70;99.90;;;;;;5094198;28;20292;-68
2021/12/01 06:29:10;;;;;;;1.23;1.10;;;7.70;99.90;;;;;;5094557;28;20293;-67
2021/12/01 06:31:37;;;;;;;2.40;2.20;;;7.70;99.90;;;;;;5094261;28;20218;-67
2021/12/01 06:34:04;;;;;;;1.75;1.40;;;7.80;99.90;;;;;;5094380;28;20305;-67
2021/12/01 06:36:32;;;;;;;1.10;0.93;;;7.80;99.90;;;;;;5093992;28;20202;-67
2021/12/01 06:38:59;;;;;;;0.80;0.80;;;7.90;99.90;;;;;;5094124;28;20751;-67
2021/12/01 06:41:26;;;;;;;1.20;0.88;;;7.90;99.90;;;;;;5094214;28;20636;-67
2021/12/01 06:43:53;;;;;;;0.80;0.80;;;8.00;99.90;;;;;;5094175;28;20289;-67
2021/12/01 06:46:20;;;;;;;0.80;0.80;;;7.90;99.90;;;;;;5093701;28;20312;-67
2021/12/01 06:48:47;;;;;;;0.90;0.90;;;8.00;99.90;;;;;;5093660;28;20612;-68
2021/12/01 06:51:13;;;;;;;0.80;0.80;;;8.00;99.90;;;;;;5094047;28;20636;-67
2021/12/01 06:53:42;;;;;;;0.70;0.68;;;8.10;99.90;;;;;;5093915;28;20233;-67
2021/12/01 06:56:09;;;;;;;1.30;0.70;;;8.10;99.90;;;;;;5093821;28;20285;-67
2021/12/01 06:58:36;;;;;;;1.85;1.35;;;8.10;99.90;;;;;;5093942;28;20288;-67
2021/12/01 07:01:04;;;;;;;0.90;0.90;;;8.10;99.90;;;;;;5094358;28;20276;-67
2021/12/01 07:03:31;;;;;;;0.80;0.80;;;8.10;99.90;;;;;;5093955;28;20238;-67
2021/12/01 07:05:58;;;;;;;0.80;0.70;;;8.10;99.90;;;;;;5093654;28;20315;-67
2021/12/01 07:08:26;;;;;;;0.70;0.70;;;8.10;99.90;;;;;;5093874;28;20620;-67
2021/12/01 07:10:54;;;;;;;0.73;0.73;;;8.00;99.90;;;;;;5093547;28;20308;-67
2021/12/01 07:13:21;;;;;;;0.80;0.80;;;8.10;99.90;;;;;;5093845;28;20289;-68
2021/12/01 07:15:48;;;;;;;1.55;0.75;;;8.00;99.90;;;;;;5093286;28;20237;-67
2021/12/01 07:18:15;;;;;;;0.70;0.70;;;8.00;99.90;;;;;;5093789;28;20311;-67
2021/12/01 07:20:45;;;;;;;1.50;0.70;;;8.10;99.90;;;;;;5093539;28;20260;-67
2021/12/01 07:23:12;;;;;;;1.02;0.80;;;8.10;99.90;;;;;;5093780;28;20276;-67
2021/12/01 07:25:39;;;;;;;0.80;0.80;;;8.10;99.90;;;;;;5093209;28;20770;-67
2021/12/01 07:28:07;;;;;;;0.70;0.70;;;8.10;99.90;;;;;;5093722;28;20305;-69
2021/12/01 07:30:35;;;;;;;0.77;0.75;;;8.10;99.90;;;;;;5065914;28;20778;-69
2021/12/01 07:33:02;;;;;;;0.93;0.93;;;8.20;99.90;;;;;;5052532;28;20199;-69
2021/12/01 07:35:29;;;;;;;0.70;0.70;;;8.30;99.90;;;;;;5052116;28;20294;-70
2021/12/01 07:37:56;;;;;;;0.93;0.93;;;8.40;99.90;;;;;;5052616;28;20266;-70
2021/12/01 07:40:23;;;;;;;1.05;0.70;;;8.50;99.90;;;;;;5052014;28;20310;-70
2021/12/01 07:42:51;;;;;;;1.45;0.85;;;8.50;99.90;;;;;;5052056;28;20756;-70
2021/12/01 07:45:19;;;;;;;1.00;0.82;;;8.60;99.90;;;;;;5052424;28;20227;-68
2021/12/01 07:47:46;;;;;;;0.70;0.70;;;8.60;99.90;;;;;;5053108;28;20737;-68
2021/12/01 07:50:13;;;;;;;0.75;0.75;;;8.70;99.90;;;;;;5053107;28;20266;-68
2021/12/01 07:52:40;;;;;;;0.60;0.50;;;8.70;99.90;;;;;;5053112;28;20290;-68
2021/12/01 07:55:08;;;;;;;0.70;0.70;;;8.70;99.90;;;;;;5052969;28;20238;-69
2021/12/01 07:57:35;;;;;;;0.60;0.60;;;8.60;99.90;;;;;;5052913;28;20747;-67
2021/12/01 08:00:03;;;;;;;1.48;0.80;;;8.60;99.90;;;;;;5052807;28;20310;-68
2021/12/01 08:02:31;;;;;;;0.70;0.70;;;8.70;99.90;;;;;;5055872;28;20294;-67
2021/12/01 08:04:59;;;;;;;0.60;0.60;;;8.70;99.90;;;;;;5056838;28;20239;-67
2021/12/01 08:07:27;;;;;;;0.60;0.60;;;8.60;99.90;;;;;;5056918;28;20286;-67
2021/12/01 08:09:54;;;;;;;0.60;0.60;;;8.70;99.90;;;;;;5056595;28;20227;-67
2021/12/01 08:12:21;;;;;;;0.45;0.45;;;8.70;99.90;;;;;;5056923;28;20286;-67
2021/12/01 08:14:48;;;;;;;2.90;0.50;;;8.80;99.90;;;;;;5056598;28;20295;-68
2021/12/01 08:17:15;;;;;;;0.93;0.60;;;8.70;99.90;;;;;;5056783;28;20624;-68
2021/12/01 08:19:43;;;;;;;0.60;0.60;;;8.80;99.90;;;;;;5056392;28;20294;-68
2021/12/01 08:22:10;;;;;;;0.70;0.50;;;8.80;99.90;;;;;;5056728;28;20310;-67
2021/12/01 08:24:37;;;;;;;0.70;0.70;;;8.80;99.90;;;;;;5056428;28;20305;-67
2021/12/01 08:27:05;;;;;;;0.60;0.60;;;8.80;99.90;;;;;;5056508;28;20322;-67
2021/12/01 08:29:32;;;;;;;0.43;0.43;;;8.70;99.90;;;;;;5056392;28;20207;-67
2021/12/01 08:32:00;;;;;;;1.20;0.60;;;8.70;99.90;;;;;;5056257;28;20235;-67
2021/12/01 08:34:27;;;;;;;0.70;0.70;;;8.80;99.90;;;;;;5056244;28;20214;-68
2021/12/01 08:36:55;;;;;;;1.25;0.60;;;8.80;99.90;;;;;;5056348;28;20286;-67
2021/12/01 08:39:22;;;;;;;0.90;0.77;;;8.90;99.90;;;;;;5056101;28;20235;-67
2021/12/01 08:41:48;;;;;;;0.70;0.45;;;9.00;99.90;;;;;;5055941;28;20259;-67
2021/12/01 08:44:16;;;;;;;0.60;0.60;;;9.00;99.90;;;;;;5056112;28;20239;-67
2021/12/01 08:46:42;;;;;;;0.88;0.50;;;9.10;99.90;;;;;;5055869;28;20624;-67
2021/12/01 08:49:09;;;;;;;1.00;0.85;;;9.10;99.90;;;;;;5055851;28;20239;-68
2021/12/01 08:51:38;;;;;;;0.70;0.70;;;9.20;99.90;;;;;;5055803;28;20780;-67
2021/12/01 08:54:06;;;;;;;0.60;0.60;;;9.10;99.90;;;;;;5055822;28;20739;-67
2021/12/01 08:56:33;;;;;;;0.50;0.50;;;9.20;99.90;;;;;;5055883;28;20200;-67
2021/12/01 08:59:00;;;;;;;0.85;0.55;;;9.20;99.90;;;;;;5055957;28;20242;-67
2021/12/01 09:01:27;;;;;;;0.40;0.40;;;9.20;99.90;;;;;;5055637;28;20259;-67
2021/12/01 09:03:54;;;;;;;1.35;0.50;;;9.30;99.90;;;;;;5055840;28;20294;-67
2021/12/01 09:06:21;;;;;;;0.98;0.60;;;9.40;99.90;;;;;;5055619;28;20318;-67
2021/12/01 09:08:48;;;;;;;0.45;0.40;;;9.50;99.90;;;;;;5055782;28;20234;-67
2021/12/01 09:11:16;;;;;;;0.32;0.32;;;9.60;99.90;;;;;;5055761;28;20314;-68
2021/12/01 09:13:43;;;;;;;0.70;0.55;;;9.70;99.90;;;;;;5055238;28;20235;-68
2021/12/01 09:16:10;;;;;;;0.50;0.50;;;9.80;99.90;;;;;;5055126;28;20249;-68
2021/12/01 09:18:37;;;;;;;1.60;0.60;;;9.80;99.90;;;;;;5055632;28;20258;-68
2021/12/01 09:21:06;;;;;;;0.40;0.40;;;9.90;99.90;;;;;;5055580;28;20227;-68
2021/12/01 09:23:32;;;;;;;0.60;0.50;;;10.00;99.90;;;;;;5055377;28;20242;-68
2021/12/01 09:25:59;;;;;;;0.50;0.47;;;9.90;99.90;;;;;;5055270;28;20310;-69
2021/12/01 09:28:28;;;;;;;0.70;0.50;;;9.90;99.90;;;;;;5055386;28;20238;-68
2021/12/01 09:30:57;;;;;;;0.70;0.52;;;9.90;99.90;;;;;;5055340;28;20315;-68
2021/12/01 09:33:25;;;;;;;0.50;0.45;;;9.90;99.90;;;;;;5055171;28;20299;-68
2021/12/01 09:35:53;;;;;;;0.40;0.40;;;9.90;99.90;;;;;;5055008;28;20290;-68
2021/12/01 09:38:20;;;;;;;0.45;0.45;;;9.90;99.90;;;;;;5055340;28;20206;-68
2021/12/01 09:40:49;;;;;;;0.95;0.80;;;9.90;99.90;;;;;;5054908;28;20250;-68
2021/12/01 09:43:18;;;;;;;0.50;0.40;;;9.90;99.90;;;;;;5055191;28;20257;-68
2021/12/01 09:45:47;;;;;;;0.50;0.50;;;10.00;99.90;;;;;;5054891;28;20262;-68
2021/12/01 09:48:13;;;;;;;0.95;0.47;;;9.90;99.90;;;;;;5055039;28;20235;-68
2021/12/01 09:50:41;;;;;;;0.50;0.38;;;10.00;99.90;;;;;;5054929;28;20306;-68
2021/12/01 09:53:08;;;;;;;2.15;1.70;;;10.00;99.90;;;;;;5054800;28;20241;-68
2021/12/01 09:55:36;;;;;;;0.90;0.88;;;10.10;99.90;;;;;;5054620;28;20231;-68
2021/12/01 09:58:06;;;;;;;1.67;0.60;;;10.10;99.90;;;;;;5054836;28;20210;-68
2021/12/01 10:00:36;;;;;;;0.50;0.40;;;10.10;99.90;;;;;;5054838;28;20255;-68
2021/12/01 10:03:05;;;;;;;0.60;0.60;;;10.10;99.90;;;;;;5054720;28;20286;-69
2021/12/01 10:05:49;;;;;;;0.80;0.52;;;10.10;99.90;;;;;;5054206;28;20295;-68
2021/12/01 10:08:19;;;;;;;0.75;0.75;;;10.10;99.90;;;;;;5054609;28;20238;-68
2021/12/01 10:10:46;;;;;;;1.05;0.88;;;10.20;99.90;;;;;;5054338;28;20227;-68
2021/12/01 10:13:13;;;;;;;0.40;0.40;;;10.20;99.90;;;;;;5054571;28;20204;-68
2021/12/01 10:15:40;;;;;;;1.60;0.80;;;10.30;99.90;;;;;;5054156;28;20238;-68
2021/12/01 10:18:14;;;;;;;1.02;0.77;;;10.30;99.90;;;;;;5054451;28;20286;-68
2021/12/01 10:20:43;;;;;;;1.17;0.70;;;10.40;99.90;;;;;;5054305;28;20262;-68
2021/12/01 10:23:12;;;;;;;0.73;0.60;;;10.40;99.90;;;;;;5054111;28;20203;-68
2021/12/01 10:25:40;;;;;;;1.15;0.50;;;10.40;99.90;;;;;;5053629;28;20298;-68
2021/12/01 10:28:07;;;;;;;1.00;0.60;;;10.40;99.90;;;;;;5054288;28;20622;-68
2021/12/01 10:30:41;;;;;;;1.17;0.60;;;10.40;99.90;;;;;;5054026;28;20311;-68
2021/12/01 10:33:10;;;;;;;0.70;0.60;;;10.50;99.90;;;;;;5054325;28;20278;-68
2021/12/01 10:35:40;;;;;;;0.65;0.65;;;10.60;99.90;;;;;;5053735;28;20298;-68
2021/12/01 10:38:07;;;;;;;1.10;1.00;;;10.70;99.90;;;;;;5054220;28;20227;-68
2021/12/01 10:40:35;;;;;;;0.60;0.60;;;10.90;99.90;;;;;;5053894;28;20281;-68
2021/12/01 10:43:04;;;;;;;0.73;0.73;;;10.90;99.90;;;;;;5053770;28;20260;-68
2021/12/01 10:45:33;;;;;;;1.23;0.60;;;11.00;99.90;;;;;;5053537;28;20231;-68
2021/12/01 10:48:01;;;;;;;0.55;0.55;;;11.10;99.90;;;;;;5053822;28;20269;-68
2021/12/01 10:50:33;;;;;;;1.15;0.55;;;11.10;99.90;;;;;;5053879;28;20300;-68
2021/12/01 10:53:06;;;;;;;0.75;0.60;;;11.10;99.90;;;;;;5053968;28;20242;-69
2021/12/01 10:55:35;;;;;;;0.70;0.70;;;11.00;99.90;;;;;;5053575;28;20298;-69
2021/12/01 10:58:05;;;;;;;0.65;0.60;;;11.00;99.90;;;;;;5053799;28;20565;-68
2021/12/01 11:00:39;;;;;;;0.65;0.65;;;10.90;99.90;;;;;;5053625;28;20259;-69
2021/12/01 11:03:08;;;;;;;1.10;0.50;;;10.90;99.90;;;;;;5053859;28;20191;-68
2021/12/01 11:05:37;;;;;;;1.33;0.70;;;10.90;99.90;;;;;;5053639;28;20261;-68
2021/12/01 11:08:14;;;;;;;0.50;0.50;;;10.90;99.90;;;;;;5053673;28;20199;-68
2021/12/01 11:10:42;;;;;;;1.20;0.40;;;10.90;99.90;;;;;;5053525;28;20317;-69
2021/12/01 11:13:09;;;;;;;0.60;0.43;;;10.90;99.90;;;;;;5053632;28;20295;-68
2021/12/01 11:15:38;;;;;;;0.50;0.45;;;10.80;99.90;;;;;;5053045;28;20776;-68
2021/12/01 11:18:07;;;;;;;1.05;0.50;;;10.80;99.90;;;;;;5053593;28;20629;-68
2021/12/01 11:20:41;;;;;;;0.50;0.40;;;10.80;99.90;;;;;;5053550;28;20314;-68
2021/12/01 11:23:17;;;;;;;0.65;0.57;;;10.90;99.90;;;;;;5053605;28;20313;-69
2021/12/01 11:25:46;;;;;;;0.47;0.47;;;11.00;99.90;;;;;;5053220;28;20249;-68
2021/12/01 11:28:15;;;;;;;0.40;0.40;;;10.90;99.90;;;;;;5053309;28;20199;-68
2021/12/01 11:30:43;;;;;;;0.40;0.40;;;10.80;99.90;;;;;;5053183;28;20223;-68
2021/12/01 11:33:13;;;;;;;0.50;0.50;;;10.90;99.90;;;;;;5053476;28;20231;-68
2021/12/01 11:35:42;;;;;;;0.60;0.47;;;10.90;99.90;;;;;;5054783;28;20657;-68
2021/12/01 11:38:09;;;;;;;0.40;0.30;;;10.90;99.90;;;;;;5057484;28;20199;-69
2021/12/01 11:40:37;;;;;;;0.80;0.60;;;11.00;99.90;;;;;;5057146;28;20254;-69
2021/12/01 11:43:08;;;;;;;0.50;0.50;;;11.00;99.90;;;;;;5057478;28;20239;-69
2021/12/01 11:45:36;;;;;;;0.60;0.60;;;11.10;99.90;;;;;;5056959;28;20659;-68
2021/12/01 11:48:04;;;;;;;0.63;0.63;;;11.20;99.90;;;;;;5057139;28;20310;-68
2021/12/01 11:50:34;;;;;;;0.85;0.50;;;11.40;99.90;;;;;;5056970;28;20251;-68
2021/12/01 11:53:16;;;;;;;0.50;0.50;;;11.50;99.90;;;;;;5057002;28;20245;-68
2021/12/01 11:55:59;;;;;;;1.23;0.70;;;11.60;99.90;;;;;;5057074;28;20239;-68
2021/12/01 11:58:46;;;;;;;0.93;0.60;;;11.70;99.90;;;;;;5056965;28;20290;-68
2021/12/01 12:01:39;;;;;;;0.80;0.60;;;11.80;99.90;;;;;;5056760;28;20310;-69
2021/12/01 12:04:30;;;;;;;2.00;1.85;;;11.90;99.90;;;;;;5057044;28;20242;-68
2021/12/01 12:07:03;;;;;;;1.20;1.10;;;12.00;99.90;;;;;;5042088;28;20310;-68
2021/12/01 12:09:31;;;;;;;0.80;0.80;;;12.00;99.90;;;;;;5056857;28;20258;-69
2021/12/01 12:12:26;;;;;;;0.50;0.50;;;11.90;99.90;;;;;;5056631;28;20725;-68
2021/12/01 12:14:54;;;;;;;0.60;0.60;;;11.90;99.90;;;;;;5056529;28;20290;-68
2021/12/01 12:17:32;;;;;;;0.70;0.70;;;11.90;99.90;;;;;;5056809;28;20203;-68
2021/12/01 12:20:04;;;;;;;0.80;0.80;;;11.90;99.90;;;;;;5056690;28;20235;-68
2021/12/01 12:22:52;;;;;;;0.60;0.60;;;11.90;99.90;;;;;;5056453;28;20626;-68
2021/12/01 12:25:56;;;;;;;0.95;0.93;;;12.10;99.90;;;;;;5056088;28;20206;-68
2021/12/01 12:28:30;;;;;;;0.60;0.60;;;12.10;99.90;;;;;;5056206;28;20696;-68
2021/12/01 12:31:01;;;;;;;1.00;0.80;;;12.10;99.90;;;;;;5056261;28;20254;-68
2021/12/01 12:33:31;;;;;;;1.80;1.70;;;12.10;99.90;;;;;;5056538;28;20302;-68
2021/12/01 12:36:00;;;;;;;2.00;1.80;;;12.10;99.90;;;;;;5056187;28;20207;-68
2021/12/01 12:38:27;;;;;;;2.63;1.73;;;12.00;99.90;;;;;;5056390;28;20345;-68
2021/12/01 12:41:12;;;;;;;1.70;1.40;;;12.00;99.90;;;;;;5056297;28;20306;-68
2021/12/01 12:43:43;;;;;;;1.60;1.50;;;11.90;99.90;;;;;;5056317;28;20243;-68
2021/12/01 12:46:15;;;;;;;1.20;1.20;;;11.80;99.90;;;;;;5055993;28;20219;-68
2021/12/01 12:48:45;;;;;;;1.08;1.08;;;11.70;99.90;;;;;;5055692;28;20199;-69
2021/12/01 12:51:21;;;;;;;1.35;1.10;;;11.60;99.90;;;;;;5056169;28;20644;-68
2021/12/01 12:54:14;;;;;;;0.85;0.85;;;11.60;99.90;;;;;;5056204;28;20219;-69
2021/12/01 12:56:52;;;;;;;1.23;1.13;;;11.50;99.90;;;;;;5055929;28;20272;-68
2021/12/01 12:59:27;;;;;;;1.00;1.00;;;11.40;99.90;;;;;;5055986;28;20301;-68
2021/12/01 13:01:57;;;;;;;1.20;1.10;;;11.30;99.90;;;;;;5055637;28;20309;-68
2021/12/01 13:04:58;;;;;;;1.00;1.00;;;11.20;99.90;;;;;;5055568;28;20239;-69
2021/12/01 13:07:45;;;;;;;1.70;1.30;;;11.00;99.90;;;;;;5055724;28;20223;-68
2021/12/01 13:10:19;;;;;;;1.45;1.25;;;11.00;99.90;;;;;;5055554;28;20747;-69